• Join FlightAware (Why Join?)
  • Login
  • US Flag 
06:53PM EDT


 

Airport Tracker/Info


-or-


 

Live Flight TrackerFlight Track Log ✈ AAL994 ✈ 31-Jul-2013 ✈ MNMG / MGA - KMIA

Flight Track Log - Related Links

Times and Time Zones

All times are in EDT time to prevent confusion due to time zone crossing. See the AAL994 flight status page for this flight to view local times or setup timezone preferences in your user account.

Time Position Orientation Groundspeed Altitude Reporting Facility
EDT Latitude Longitude Course Direction KTS MPH feet Rate Location/Type
09:21AM 12.4518 -86.0451 21° North  Level FlightAware Approximate
09:22AM 12.5553 -86.0040 21° North  Level FlightAware Approximate
09:23AM 12.6587 -85.9629 21° North  Level FlightAware Approximate
09:24AM 12.7621 -85.9217 21° North  Level FlightAware Approximate
09:25AM 12.8656 -85.8805 21° North  Level FlightAware Approximate
09:26AM 12.9690 -85.8393 21° North  Level FlightAware Approximate
09:27AM 13.0724 -85.7980 21° North  Level FlightAware Approximate
09:28AM 13.1758 -85.7567 21° North  Level FlightAware Approximate
09:29AM 13.2792 -85.7153 21° North  Level FlightAware Approximate
09:30AM 13.3826 -85.6740 21° North  Level FlightAware Approximate
09:31AM 13.4860 -85.6326 21° North  Level FlightAware Approximate
09:32AM 13.5893 -85.5911 21° North  Level FlightAware Approximate
09:33AM 13.6927 -85.5497 21° North  Level FlightAware Approximate
09:34AM 13.7960 -85.5080 21° North  Level Estimated
09:35AM 13.8994 -85.4665 21° North  Level FlightAware Approximate
09:36AM 14.0028 -85.4251 21° North  Level FlightAware Approximate
09:37AM 14.1062 -85.3836 21° North  Level FlightAware Approximate
09:38AM 14.2095 -85.3420 21° North  Level FlightAware Approximate
09:39AM 14.3129 -85.3004 21° North  Level FlightAware Approximate
09:40AM 14.4171 -85.2585 21° North  Level FlightAware Approximate
09:41AM 14.5212 -85.2165 21° North  Level FlightAware Approximate
09:42AM 14.6253 -85.1745 21° North  Level FlightAware Approximate
09:43AM 14.7294 -85.1325 21° North  Level FlightAware Approximate
09:44AM 14.8335 -85.0904 21° North  Level FlightAware Approximate
09:45AM 14.9375 -85.0479 21° North  Level Estimated
09:46AM 15.0426 -85.0060 21° North  Level FlightAware Approximate
09:47AM 15.1477 -84.9640 21° North  Level FlightAware Approximate
09:48AM 15.2527 -84.9220 21° North  Level FlightAware Approximate
09:49AM 15.3578 -84.8800 21° North  Level FlightAware Approximate
09:50AM 15.4628 -84.8379 21° North  Level FlightAware Approximate
09:51AM 15.5679 -84.7957 21° North  Level FlightAware Approximate
09:52AM 15.6729 -84.7536 21° North  Level FlightAware Approximate
09:53AM 15.7780 -84.7113 21° North  Level FlightAware Approximate
09:54AM 15.8830 -84.6691 21° North  Level FlightAware Approximate
09:55AM 15.9880 -84.6268 21° North  Level FlightAware Approximate
09:56AM 16.0930 -84.5844 21° North  Level FlightAware Approximate
09:57AM 16.1980 -84.5420 21° North  Level FlightAware Approximate
09:58AM 16.3030 -84.4995 21° North  Level FlightAware Approximate
09:59AM 16.4079 -84.4571 21° North  Level FlightAware Approximate
10:00AM 16.5129 -84.4145 21° North  Level FlightAware Approximate
10:01AM 16.6179 -84.3719 21° North  Level FlightAware Approximate
10:02AM 16.7228 -84.3293 21° North  Level FlightAware Approximate
10:03AM 16.8278 -84.2866 21° North  Level FlightAware Approximate
10:04AM 16.9327 -84.2439 21° North  Level FlightAware Approximate
10:05AM 17.0376 -84.2011 21° North  Level FlightAware Approximate
10:06AM 17.1425 -84.1583 21° North  Level FlightAware Approximate
10:07AM 17.2474 -84.1154 21° North  Level FlightAware Approximate
10:08AM 17.3524 -84.0725 21° North  Level FlightAware Approximate
10:09AM 17.4572 -84.0296 21° North  Level FlightAware Approximate
10:10AM 17.5621 -83.9865 21° North  Level FlightAware Approximate
10:11AM 17.6670 -83.9435 21° North  Level FlightAware Approximate
10:12AM 17.7719 -83.9004 21° North  Level FlightAware Approximate
10:13AM 17.8767 -83.8572 21° North  Level FlightAware Approximate
10:14AM 17.9815 -83.8140 21° North  Level FlightAware Approximate
10:15AM 18.0864 -83.7707 21° North  Level FlightAware Approximate
10:16AM 18.1912 -83.7274 21° North  Level FlightAware Approximate
10:17AM 18.2960 -83.6840 21° North  Level FlightAware Approximate
10:18AM 18.4008 -83.6406 21° North  Level FlightAware Approximate
10:19AM 18.5056 -83.5971 21° North  Level FlightAware Approximate
10:20AM 18.6104 -83.5536 21° North  Level FlightAware Approximate
10:21AM 18.7151 -83.5100 22° Northeast  Level FlightAware Approximate
10:22AM 18.8199 -83.4663 22° Northeast  Level FlightAware Approximate
10:23AM 18.9247 -83.4227 22° Northeast  Level FlightAware Approximate
10:24AM 19.0302 -83.3786 22° Northeast  Level FlightAware Approximate
10:25AM 19.1357 -83.3344 22° Northeast  Level FlightAware Approximate
10:26AM 19.2412 -83.2903 22° Northeast  Level FlightAware Approximate
10:27AM 19.3468 -83.2460 22° Northeast  Level FlightAware Approximate
10:28AM 19.4522 -83.2017 22° Northeast  Level FlightAware Approximate
10:29AM 19.5577 -83.1573 22° Northeast  Level FlightAware Approximate
10:30AM 19.6632 -83.1129 22° Northeast  Level FlightAware Approximate
10:31AM 19.7680 -83.0668 22° Northeast  Level Estimated
10:32AM 19.8734 -83.0221 22° Northeast  Level FlightAware Approximate
10:33AM 19.9788 -82.9774 22° Northeast  Level FlightAware Approximate
10:34AM 20.0842 -82.9326 22° Northeast  Level FlightAware Approximate
10:35AM 20.1890 -82.8862 22° Northeast  Level Estimated
10:36AM 20.2943 -82.8413 22° Northeast  Level FlightAware Approximate
10:37AM 20.3997 -82.7964 22° Northeast  Level FlightAware Approximate
10:38AM 20.5050 -82.7513 22° Northeast  Level FlightAware Approximate
10:39AM 20.6104 -82.7063 22° Northeast  Level FlightAware Approximate
10:40AM 20.7157 -82.6611 22° Northeast  Level FlightAware Approximate
10:41AM 20.8210 -82.6159 22° Northeast  Level FlightAware Approximate
10:42AM 20.9263 -82.5706 22° Northeast  Level FlightAware Approximate
10:43AM 21.0315 -82.5253 22° Northeast  Level FlightAware Approximate
10:44AM 21.1368 -82.4799 22° Northeast  Level FlightAware Approximate
10:45AM 21.2421 -82.4344 22° Northeast  Level FlightAware Approximate
10:46AM 21.3473 -82.3889 22° Northeast  Level FlightAware Approximate
10:47AM 21.4526 -82.3433 22° Northeast  Level FlightAware Approximate
10:48AM 21.5578 -82.2977 22° Northeast  Level FlightAware Approximate
10:49AM 21.6630 -82.2520 22° Northeast  Level FlightAware Approximate
10:50AM 21.7682 -82.2062 22° Northeast  Level FlightAware Approximate
10:51AM 21.8734 -82.1603 22° Northeast  Level FlightAware Approximate
10:52AM 21.9785 -82.1144 22° Northeast  Level FlightAware Approximate
10:53AM 22.0837 -82.0684 22° Northeast  Level FlightAware Approximate
10:54AM 22.1888 -82.0223 22° Northeast  Level FlightAware Approximate
10:55AM 22.2939 -81.9762 22° Northeast  Level FlightAware Approximate
10:56AM 22.3963 -81.9312 22° Northeast  Level FlightAware Approximate
10:56AM 23.0180 -81.4560 22° Northeast 425 489 36,000  Level FlightAware
10:57AM 22.4987 -81.8861 22° Northeast  Level FlightAware Approximate
10:57AM 23.1060 -81.4340 13° North 432 497 36,000  Level FlightAware
10:58AM 23.1910 -81.4140 12° North 431 496 36,000  Level FlightAware
10:59AM 23.2840 -81.3910 13° North 428 493 36,000  Level FlightAware
10:59AM 23.3420 -81.3770 12° North 427 491 36,000  Level FlightAware
10:59AM 23.3850 -81.3670 12° North 426 490 36,000  Level FlightAware
11:00AM 23.4850 -81.3420 13° North 426 490 36,000  Level FlightAware
11:01AM 23.5720 -81.3210 12° North 425 489 36,000  Level FlightAware
11:02AM 23.6330 -81.3070 12° North 416 479 36,000  Level FlightAware
11:02AM 23.6660 -81.2980 14° North 416 479 36,000  Level FlightAware
11:03AM 23.7810 -81.2710 12° North 413 475 36,000  Level FlightAware
11:03AM 23.8440 -81.2550 13° North 411 473 36,000  Level FlightAware
11:04AM 23.9030 -81.2410 12° North 410 472 36,000  Level FlightAware
11:05AM 23.9760 -81.2230 13° North 410 472 36,000  Level FlightAware
11:05AM 24.0470 -81.2080 11° North 409 471 36,000 -120 Level FlightAware
11:06AM 24.1180 -81.1960 North 409 471 35,900 -600 Descending FlightAware
11:06AM 24.1870 -81.1830 10° North 409 471 35,300 -960 Descending FlightAware
11:07AM 24.2480 -81.1720 North 420 483 34,800 -900 Descending FlightAware
11:08AM 24.3100 -81.1610 North 425 489 34,300 -900 Descending FlightAware
11:08AM 24.3550 -81.1630 358° North 435 501 34,000 -1,020 Descending FlightAware
11:08AM 24.4260 -81.1740 352° North 438 504 33,400 -1,080 Descending FlightAware
11:09AM 24.5130 -81.1870 352° North 435 501 32,700 -1,320 Descending FlightAware
11:10AM 24.5880 -81.1980 352° North 438 504 31,700 -1,920 Descending FlightAware
11:10AM 24.6570 -81.2080 352° North 436 502 30,500 -2,160 Descending FlightAware
11:11AM 24.7430 -81.2180 354° North 454 522 29,000 -1,920 Descending FlightAware
11:12AM 24.7850 -81.2230 354° North 451 519 28,200 -2,460 Descending FlightAware
11:12AM 24.8780 -81.2350 353° North 440 506 26,400 -3,000 Descending FlightAware
11:13AM 24.9480 -81.2430 354° North 434 499 24,900 -2,040 Descending FlightAware
11:13AM 25.0070 -81.2510 353° North 406 467 24,200 -1,140 Descending FlightAware
11:14AM 25.0620 -81.2580 353° North 389 448 23,800 -1,560 Descending FlightAware
11:15AM 25.1560 -81.2490 North 367 422 22,000 -2,220 Descending FlightAware
11:15AM 25.2020 -81.2090 38° Northeast 359 413 20,500 -2,640 Descending FlightAware
11:16AM 25.2440 -81.1720 39° Northeast 365 420 19,100 -2,520 Descending FlightAware
11:16AM 25.3000 -81.1260 37° Northeast 352 405 17,500 -2,520 Descending FlightAware
11:17AM 25.3430 -81.0890 38° Northeast 352 405 16,000 -3,480 Descending FlightAware
11:18AM 25.4070 -81.0340 38° Northeast 371 427 12,900 -3,600 Descending FlightAware
11:18AM 25.4540 -80.9930 38° Northeast 373 429 11,000 -2,460 Descending FlightAware
11:19AM 25.5080 -80.9470 38° Northeast 343 395 9,800 -1,380 Descending FlightAware
11:19AM 25.5260 -80.9320 37° Northeast 313 360 9,800 -180 Level FlightAware
11:20AM 25.5520 -80.9080 40° Northeast 286 329 9,700 -780 Descending FlightAware
11:20AM 25.5630 -80.8890 57° Northeast 282 325 9,300 -1,560 Descending FlightAware
11:20AM 25.5740 -80.8640 64° Northeast 278 320 8,900 -1,380 Descending FlightAware
11:21AM 25.5910 -80.8330 59° Northeast 275 316 8,300 -1,500 Descending FlightAware
11:21AM 25.6040 -80.8080 60° Northeast 272 313 7,800 -1,440 Descending FlightAware
11:21AM 25.6230 -80.7720 60° Northeast 267 307 7,100 -1,440 Descending FlightAware
11:22AM 25.6390 -80.7410 60° Northeast 263 303 6,500 -1,200 Descending FlightAware
11:22AM 25.6420 -80.7360 56° Northeast 266 306 6,500 -900 Level FlightAware
11:23AM 25.6780 -80.6670 60° Northeast 238 274 5,600 -840 Descending FlightAware
11:23AM 25.6860 -80.6520 59° Northeast 233 268 5,500 -780 Descending FlightAware
11:24AM 25.7000 -80.6260 59° Northeast 226 260 5,100 -900 Descending FlightAware
11:24AM 25.7070 -80.6120 61° Northeast 224 258 4,900 -900 Descending FlightAware
11:24AM 25.7180 -80.5920 59° Northeast 221 254 4,600 -1,080 Descending FlightAware
11:25AM 25.7280 -80.5730 60° Northeast 214 246 4,200 -1,080 Descending FlightAware
11:25AM 25.7460 -80.5390 60° Northeast 212 244 3,600 -1,140 Descending FlightAware
11:25AM 25.7560 -80.5200 60° Northeast 217 250 3,200 -780 Descending FlightAware
11:26AM 25.7660 -80.5010 60° Northeast 207 238 3,100 -480 Descending FlightAware
11:26AM 25.7760 -80.4820 60° Northeast 208 239 2,900 -480 Descending FlightAware
11:26AM 25.7780 -80.4780 61° Northeast 200 230 2,900 -780 Level FlightAware
11:26AM 25.7800 -80.4670 79° East 196 226 2,700 -1,200 Descending FlightAware
11:27AM 25.7800 -80.4520 90° East 187 215 2,400 -1,080 Descending FlightAware
11:27AM 25.7810 -80.4230 88° East 170 196 1,900 -1,080 Descending FlightAware
11:28AM 25.7820 -80.4050 86° East 166 191 1,500 -1,140 Descending FlightAware
11:28AM 25.7830 -80.3900 86° East 160 184 1,200 -900 Descending FlightAware
11:28AM 25.7840 -80.3750 86° East 158 182 900 -900 Descending FlightAware
11:28AM 25.7840 -80.3590 90° East 155 178 600 -840 Descending FlightAware
11:29AM 25.7850 -80.3430 86° East 154 177 400 -480 Descending FlightAware
11:30AM 25.7860 -80.3110 88° East 150 173 100 -420 Descending FlightAware